Time;durP1;ratioP1;P1;durP2;ratioP2;P2;SDS_P1;SDS_P2;PMS_P1;PMS_P2;Temp;Humidity;BMP_temperature;BMP_pressure;BME280_temperature;BME280_humidity;BME280_pressure;Samples;Min_cycle;Max_cycle;Signal;HPM_P1;HPM_P2
2022/04/10 00:01:28;;;;;;;16.05;1.95;;;;;;;5.19;nan;100972.94;5003848;28;20113;-60
2022/04/10 00:03:54;;;;;;;6.63;1.25;;;;;;;5.20;nan;100971.09;5004808;28;20104;-60
2022/04/10 00:06:19;;;;;;;6.38;1.73;;;;;;;5.14;nan;100973.56;5003427;28;20113;-60
2022/04/10 00:08:45;;;;;;;12.20;2.28;;;;;;;5.08;nan;100962.97;5005051;28;21590;-61
2022/04/10 00:11:11;;;;;;;9.20;2.25;;;;;;;5.02;nan;100975.19;5005880;28;20025;-59
2022/04/10 00:13:37;;;;;;;6.32;1.38;;;;;;;5.02;nan;100964.59;5004242;28;20038;-61
2022/04/10 00:16:03;;;;;;;7.22;1.55;;;;;;;4.97;nan;100982.97;5002168;28;20169;-60
2022/04/10 00:18:31;;;;;;;7.38;1.55;;;;;;;4.94;nan;100978.09;5005392;28;20037;-61
2022/04/10 00:20:56;;;;;;;4.68;1.58;;;;;;;4.93;nan;100978.28;5001883;28;20034;-62
2022/04/10 00:23:22;;;;;;;9.13;2.40;;;;;;;4.88;nan;100980.75;5001551;28;20533;-61
2022/04/10 00:25:47;;;;;;;5.68;1.40;;;;;;;4.83;nan;100984.00;5003969;28;20033;-61
2022/04/10 00:28:13;;;;;;;3.75;1.48;;;;;;;4.78;nan;100976.66;5002258;28;20040;-61
2022/04/10 00:30:38;;;;;;;7.13;1.40;;;;;;;4.78;nan;100978.50;5002844;28;20033;-61
2022/04/10 00:33:04;;;;;;;14.80;2.15;;;;;;;4.73;nan;100986.25;5005326;28;20038;-61
2022/04/10 00:35:29;;;;;;;9.55;1.42;;;;;;;4.68;nan;100986.88;5007223;28;20030;-61
2022/04/10 00:37:55;;;;;;;5.07;1.40;;;;;;;4.67;nan;100981.75;5004943;28;20435;-61
2022/04/10 00:40:20;;;;;;;11.75;1.58;;;;;;;4.67;nan;100973.78;5006746;28;20112;-61
2022/04/10 00:42:48;;;;;;;10.25;1.60;;;;;;;4.65;nan;100989.09;5004310;28;20627;-62
2022/04/10 00:45:14;;;;;;;5.57;1.40;;;;;;;4.64;nan;100996.25;5006051;28;20037;-61
2022/04/10 00:47:39;;;;;;;6.55;1.40;;;;;;;4.59;nan;100989.91;5005240;28;20025;-61
2022/04/10 00:50:07;;;;;;;4.45;1.40;;;;;;;4.58;nan;100985.63;5004351;28;20175;-62
2022/04/10 00:52:34;;;;;;;15.10;2.13;;;;;;;4.56;nan;100983.19;5001662;28;20084;-62
2022/04/10 00:55:00;;;;;;;5.07;1.20;;;;;;;4.53;nan;100988.91;5001136;28;20026;-61
2022/04/10 00:57:25;;;;;;;6.82;1.38;;;;;;;4.50;nan;100989.31;5004817;28;20041;-61
2022/04/10 00:59:52;;;;;;;5.95;2.00;;;;;;;4.47;nan;100979.88;5004768;28;20083;-60
2022/04/10 01:02:17;;;;;;;4.47;1.45;;;;;;;4.49;nan;100985.03;5004647;28;20029;-60
2022/04/10 01:04:43;;;;;;;7.43;1.48;;;;;;;4.44;nan;100987.44;5005732;28;20022;-60
2022/04/10 01:07:13;;;;;;;7.00;1.92;;;;;;;4.46;nan;100972.94;5004252;28;20109;-61
2022/04/10 01:09:39;;;;;;;5.78;1.80;;;;;;;4.45;nan;100984.59;5004134;28;20650;-61
2022/04/10 01:12:07;;;;;;;5.30;1.35;;;;;;;4.41;nan;100986.00;5005924;28;20105;-61
2022/04/10 01:14:33;;;;;;;12.85;1.95;;;;;;;4.39;nan;100988.06;5001865;28;20029;-61
2022/04/10 01:16:59;;;;;;;6.38;1.23;;;;;;;4.40;nan;100979.06;5004477;28;20022;-61
2022/04/10 01:19:25;;;;;;;4.13;1.42;;;;;;;4.39;nan;100982.75;5001667;28;20057;-60
2022/04/10 01:21:54;;;;;;;5.70;1.50;;;;;;;4.39;nan;100992.53;5006062;28;20042;-60
2022/04/10 01:24:20;;;;;;;4.57;1.67;;;;;;;4.36;nan;100983.16;5004623;28;20045;-61
2022/04/10 01:26:46;;;;;;;7.13;1.60;;;;;;;4.37;nan;100995.41;5005646;28;20200;-60
2022/04/10 01:29:13;;;;;;;7.70;1.80;;;;;;;4.33;nan;100999.47;5004139;28;20030;-60
2022/04/10 01:31:42;;;;;;;6.80;1.80;;;;;;;4.28;nan;100998.44;5005640;28;20053;-60
2022/04/10 01:34:10;;;;;;;7.75;1.90;;;;;;;4.31;nan;101001.53;5003947;28;20017;-61
2022/04/10 01:36:37;;;;;;;7.28;1.45;;;;;;;4.30;nan;100993.72;5004879;28;20092;-59
2022/04/10 01:39:05;;;;;;;9.02;1.98;;;;;;;4.27;nan;101004.75;5008459;28;20057;-61
2022/04/10 01:41:31;;;;;;;7.43;1.90;;;;;;;4.27;nan;100996.78;5007550;28;20680;-62
2022/04/10 01:43:58;;;;;;;7.82;1.50;;;;;;;4.27;nan;100994.13;5007827;28;20030;-61
2022/04/10 01:46:25;;;;;;;4.13;1.55;;;;;;;4.22;nan;101002.69;5007396;28;20951;-59
2022/04/10 01:48:51;;;;;;;6.60;1.70;;;;;;;4.24;nan;101000.66;5010241;28;20064;-60
2022/04/10 01:51:17;;;;;;;16.33;2.17;;;;;;;4.25;nan;101003.13;5002298;28;20042;-62
2022/04/10 01:53:43;;;;;;;6.90;1.63;;;;;;;4.31;nan;101011.28;5005981;28;20566;-60
2022/04/10 01:56:09;;;;;;;10.20;2.00;;;;;;;4.33;nan;101004.78;5003831;28;20023;-61
2022/04/10 01:58:38;;;;;;;8.98;1.80;;;;;;;4.35;nan;101010.72;5007678;28;20026;-59
2022/04/10 02:01:06;;;;;;;6.05;1.80;;;;;;;4.35;nan;101016.00;5003362;28;20092;-61
2022/04/10 02:03:32;;;;;;;6.50;1.95;;;;;;;4.38;nan;101022.75;5005781;28;20038;-60
2022/04/10 02:05:58;;;;;;;8.30;1.90;;;;;;;4.35;nan;101029.28;5004253;28;20388;-61
2022/04/10 02:08:24;;;;;;;8.13;2.13;;;;;;;4.36;nan;101022.94;5005761;28;20025;-62
2022/04/10 02:10:50;;;;;;;9.40;2.15;;;;;;;4.34;nan;101017.03;5006045;28;20562;-60
2022/04/10 02:13:16;;;;;;;13.52;1.95;;;;;;;4.37;nan;101021.94;5006525;28;20029;-60
2022/04/10 02:15:41;;;;;;;7.45;2.22;;;;;;;4.37;nan;101021.94;5010333;28;20509;-60
2022/04/10 02:18:07;;;;;;;8.63;1.90;;;;;;;4.37;nan;101021.94;5006932;28;20036;-61
2022/04/10 02:20:33;;;;;;;7.72;1.95;;;;;;;4.42;nan;101026.63;5009589;28;20026;-60
2022/04/10 02:22:59;;;;;;;7.22;1.90;;;;;;;4.46;nan;101014.59;5005006;28;20025;-60
2022/04/10 02:25:25;;;;;;;9.60;1.80;;;;;;;4.45;nan;101019.06;5006034;28;20029;-62
2022/04/10 02:27:50;;;;;;;6.20;1.92;;;;;;;4.44;nan;101030.72;5007844;28;20041;-60
2022/04/10 02:30:18;;;;;;;6.97;2.20;;;;;;;4.44;nan;101025.41;5001810;28;20030;-60
2022/04/10 02:32:43;;;;;;;6.13;1.88;;;;;;;4.46;nan;101023.38;5007741;28;20061;-60
2022/04/10 02:35:09;;;;;;;5.82;1.80;;;;;;;4.44;nan;101028.06;5003797;28;20061;-61
2022/04/10 02:37:35;;;;;;;4.28;1.77;;;;;;;4.42;nan;101024.78;5002308;28;20052;-61
2022/04/10 02:40:03;;;;;;;10.50;2.78;;;;;;;4.44;nan;101027.25;5004035;28;20022;-62
2022/04/10 02:42:29;;;;;;;10.10;1.85;;;;;;;4.43;nan;101018.47;5002929;28;20036;-61
2022/04/10 02:44:55;;;;;;;10.00;2.28;;;;;;;4.45;nan;101032.34;5008361;28;20418;-60
2022/04/10 02:47:20;;;;;;;6.63;1.92;;;;;;;4.47;nan;101037.44;5007779;28;20044;-61
2022/04/10 02:49:47;;;;;;;8.15;1.80;;;;;;;4.45;nan;101039.50;5002613;28;20503;-60
2022/04/10 02:52:12;;;;;;;7.35;2.13;;;;;;;4.41;nan;101044.38;5005863;28;20439;-61
2022/04/10 02:54:38;;;;;;;6.97;1.70;;;;;;;4.43;nan;101037.03;5004421;28;20083;-61
2022/04/10 02:57:04;;;;;;;6.95;1.90;;;;;;;4.45;nan;101039.50;5006448;28;20030;-60
2022/04/10 02:59:29;;;;;;;9.05;1.88;;;;;;;4.41;nan;101039.06;5005446;28;20033;-58
2022/04/10 03:01:55;;;;;;;4.93;1.90;;;;;;;4.42;nan;101035.41;5007252;28;20034;-60
2022/04/10 03:04:20;;;;;;;6.38;2.00;;;;;;;4.41;nan;101049.69;5002031;28;20045;-61
2022/04/10 03:06:46;;;;;;;7.95;2.22;;;;;;;4.44;nan;101040.50;5005753;28;20018;-61
2022/04/10 03:09:11;;;;;;;5.32;2.00;;;;;;;4.48;nan;101044.38;5004100;28;20032;-62
2022/04/10 03:11:37;;;;;;;5.80;2.00;;;;;;;4.49;nan;101056.66;5005961;28;20022;-62
2022/04/10 03:14:03;;;;;;;6.72;2.20;;;;;;;4.51;nan;101049.31;5003994;28;20105;-61
2022/04/10 03:16:28;;;;;;;6.90;1.98;;;;;;;4.52;nan;101053.59;5004814;28;20405;-60
2022/04/10 03:18:54;;;;;;;6.78;2.10;;;;;;;4.51;nan;101057.28;5007705;28;20026;-62
2022/04/10 03:21:20;;;;;;;7.32;1.83;;;;;;;4.50;nan;101056.47;5004947;28;20045;-59
2022/04/10 03:23:46;;;;;;;4.97;1.85;;;;;;;4.49;nan;101054.81;5003834;28;20032;-62
2022/04/10 03:26:11;;;;;;;6.43;2.28;;;;;;;4.47;nan;101061.31;5004412;28;20018;-61
2022/04/10 03:28:37;;;;;;;6.38;1.92;;;;;;;4.42;nan;101059.28;5002148;28;20478;-61
2022/04/10 03:31:02;;;;;;;7.57;2.00;;;;;;;4.44;nan;101067.03;5004981;28;20053;-62
2022/04/10 03:33:28;;;;;;;11.15;2.20;;;;;;;4.48;nan;101061.13;5005485;28;20030;-61
2022/04/10 03:35:54;;;;;;;7.57;2.47;;;;;;;4.51;nan;101066.06;5002267;28;20029;-60
2022/04/10 03:38:20;;;;;;;5.93;2.10;;;;;;;4.52;nan;101061.56;5003794;28;20034;-60
2022/04/10 03:40:45;;;;;;;7.95;2.20;;;;;;;4.52;nan;101070.34;5001929;28;20026;-61
2022/04/10 03:43:14;;;;;;;10.48;2.40;;;;;;;4.49;nan;101076.06;5003661;28;20483;-61
2022/04/10 03:45:40;;;;;;;11.60;2.05;;;;;;;4.47;nan;101075.41;5005929;28;20033;-61
2022/04/10 03:48:09;;;;;;;7.22;2.00;;;;;;;4.44;nan;101067.03;5006115;28;20021;-61
2022/04/10 03:50:35;;;;;;;9.75;2.30;;;;;;;4.44;nan;101070.50;5006724;28;20503;-61
2022/04/10 03:53:01;;;;;;;9.40;2.20;;;;;;;4.41;nan;101075.41;5003744;28;20030;-62
2022/04/10 03:55:27;;;;;;;4.65;1.73;;;;;;;4.40;nan;101073.75;5006046;28;20041;-60
2022/04/10 03:57:53;;;;;;;7.50;2.20;;;;;;;4.39;nan;101075.59;5001833;28;20026;-61
2022/04/10 04:00:19;;;;;;;9.95;2.70;;;;;;;4.40;nan;101071.94;5000695;28;20044;-62
2022/04/10 04:02:45;;;;;;;8.98;2.58;;;;;;;4.42;nan;101077.84;5004506;28;20137;-61
2022/04/10 04:05:11;;;;;;;12.50;2.92;;;;;;;4.45;nan;101088.06;5004206;28;20040;-62
2022/04/10 04:07:38;;;;;;;7.30;1.98;;;;;;;4.45;nan;101090.72;5002443;28;20053;-61
2022/04/10 04:10:05;;;;;;;8.43;2.22;;;;;;;4.46;nan;101089.69;5001008;28;20427;-61
2022/04/10 04:12:30;;;;;;;10.07;2.40;;;;;;;4.46;nan;101094.19;5003620;28;20026;-61
2022/04/10 04:14:56;;;;;;;10.65;2.70;;;;;;;4.46;nan;101099.50;5002008;28;20029;-61
2022/04/10 04:17:21;;;;;;;7.07;2.45;;;;;;;4.46;nan;101105.63;5002774;28;20510;-60
2022/04/10 04:19:50;;;;;;;9.35;2.67;;;;;;;4.43;nan;101098.06;5008031;28;20025;-62
2022/04/10 04:22:16;;;;;;;6.40;2.22;;;;;;;4.47;nan;101106.44;5005849;28;20041;-61
2022/04/10 04:24:42;;;;;;;9.57;2.45;;;;;;;4.48;nan;101103.56;5006471;28;20541;-62
2022/04/10 04:27:08;;;;;;;7.53;2.15;;;;;;;4.52;nan;101109.31;5004713;28;20026;-61
2022/04/10 04:29:34;;;;;;;4.30;2.28;;;;;;;4.56;nan;101107.91;5005869;28;20030;-61
2022/04/10 04:32:00;;;;;;;6.13;2.55;;;;;;;4.58;nan;101113.00;5003578;28;20502;-61
2022/04/10 04:34:25;;;;;;;6.68;2.50;;;;;;;4.58;nan;101120.97;5006178;28;20036;-62
2022/04/10 04:36:51;;;;;;;11.68;2.10;;;;;;;4.59;nan;101127.91;5002404;28;20027;-62
2022/04/10 04:39:17;;;;;;;13.20;2.35;;;;;;;4.54;nan;101139.94;4987123;28;20025;-62
2022/04/10 04:41:42;;;;;;;8.75;2.33;;;;;;;4.55;nan;101146.06;5005508;28;20079;-61
2022/04/10 04:44:08;;;;;;;13.68;3.25;;;;;;;4.52;nan;101142.00;5001853;28;20025;-61
2022/04/10 04:46:33;;;;;;;5.40;2.20;;;;;;;4.50;nan;101149.34;5006095;28;20666;-61
2022/04/10 04:48:59;;;;;;;10.32;2.20;;;;;;;4.49;nan;101145.03;5002291;28;20030;-61
2022/04/10 04:51:25;;;;;;;7.15;2.17;;;;;;;4.44;nan;101155.41;5003147;28;20025;-62
2022/04/10 04:53:50;;;;;;;13.05;2.47;;;;;;;4.46;nan;101156.03;5004505;28;20017;-62
2022/04/10 04:56:16;;;;;;;10.32;2.45;;;;;;;4.47;nan;101157.66;5004097;28;20026;-62
2022/04/10 04:58:43;;;;;;;7.97;2.72;;;;;;;4.49;nan;101168.09;5002569;28;20033;-62
2022/04/10 05:01:08;;;;;;;5.28;2.10;;;;;;;4.51;nan;101163.41;5000645;28;20037;-61
2022/04/10 05:03:34;;;;;;;8.93;2.17;;;;;;;4.55;nan;101168.13;5003247;28;20030;-62
2022/04/10 05:06:00;;;;;;;8.25;2.95;;;;;;;4.57;nan;101173.22;5002659;28;20024;-62
2022/04/10 05:08:26;;;;;;;9.57;2.30;;;;;;;4.56;nan;101171.59;5002495;28;20030;-62
2022/04/10 05:10:51;;;;;;;12.45;2.50;;;;;;;4.58;nan;101182.00;5005319;28;20111;-61
2022/04/10 05:13:17;;;;;;;8.82;3.03;;;;;;;4.58;nan;101185.47;5007156;28;20057;-61
2022/04/10 05:15:43;;;;;;;5.60;2.47;;;;;;;4.62;nan;101183.25;5007399;28;20450;-61
2022/04/10 05:18:08;;;;;;;13.10;3.17;;;;;;;4.61;nan;101186.91;5010058;28;20026;-62
2022/04/10 05:20:34;;;;;;;7.18;2.40;;;;;;;4.61;nan;101197.53;5006091;28;20065;-61
2022/04/10 05:22:59;;;;;;;9.00;3.15;;;;;;;4.61;nan;101197.53;5008740;28;20022;-61
2022/04/10 05:25:25;;;;;;;8.63;2.15;;;;;;;4.62;nan;101199.16;5008693;28;20032;-61
2022/04/10 05:27:50;;;;;;;8.40;2.03;;;;;;;4.67;nan;101200.22;5010781;28;20026;-61
2022/04/10 05:30:16;;;;;;;11.00;2.22;;;;;;;4.70;nan;101204.31;5008372;28;20033;-60
2022/04/10 05:32:43;;;;;;;8.85;2.65;;;;;;;4.71;nan;101205.97;5007109;28;20109;-60
2022/04/10 05:35:12;;;;;;;7.25;2.22;;;;;;;4.76;nan;101211.47;5005610;28;20044;-60
2022/04/10 05:37:38;;;;;;;9.50;2.33;;;;;;;4.80;nan;101212.72;5009340;28;20115;-61
2022/04/10 05:40:05;;;;;;;11.80;2.47;;;;;;;4.79;nan;101211.09;5009190;28;20049;-61
2022/04/10 05:42:30;;;;;;;8.85;2.40;;;;;;;4.78;nan;101220.06;5010889;28;20418;-61
2022/04/10 05:45:03;;;;;;;7.10;2.25;;;;;;;4.77;nan;101218.44;5003673;28;20021;-60
2022/04/10 05:47:28;;;;;;;8.32;2.40;;;;;;;4.81;nan;101223.13;5008116;28;20022;-59
2022/04/10 05:49:54;;;;;;;7.57;2.42;;;;;;;4.80;nan;101233.97;5005392;28;20036;-61
2022/04/10 05:52:20;;;;;;;9.60;2.47;;;;;;;4.77;nan;101229.03;5009141;28;20017;-61
2022/04/10 05:54:45;;;;;;;6.95;2.20;;;;;;;4.77;nan;101234.34;5007722;28;20533;-61
2022/04/10 05:57:11;;;;;;;14.23;2.75;;;;;;;4.80;nan;101231.31;5009689;28;20105;-63
2022/04/10 05:59:36;;;;;;;5.03;2.15;;;;;;;4.83;nan;101242.34;5007027;28;20033;-62
2022/04/10 06:02:02;;;;;;;10.02;2.42;;;;;;;4.85;nan;101236.84;5003766;28;20527;-62
2022/04/10 06:04:28;;;;;;;9.23;2.67;;;;;;;4.86;nan;101238.50;5006716;28;20026;-60
2022/04/10 06:06:53;;;;;;;5.72;2.58;;;;;;;4.88;nan;101247.06;5006604;28;20368;-61
2022/04/10 06:09:19;;;;;;;4.93;2.00;;;;;;;4.88;nan;101244.41;5009110;28;20036;-61
2022/04/10 06:11:44;;;;;;;4.35;2.25;;;;;;;4.85;nan;101253.59;5004108;28;20028;-61
2022/04/10 06:14:10;;;;;;;5.97;2.03;;;;;;;4.85;nan;101256.25;5003197;28;20547;-62
2022/04/10 06:16:35;;;;;;;8.15;2.40;;;;;;;4.83;nan;101260.09;5004483;28;20103;-61
2022/04/10 06:19:01;;;;;;;10.65;2.60;;;;;;;4.83;nan;101263.56;5008275;28;20107;-61
2022/04/10 06:21:26;;;;;;;7.40;2.38;;;;;;;4.81;nan;101260.31;5007287;28;20034;-61
2022/04/10 06:23:52;;;;;;;6.40;2.45;;;;;;;4.81;nan;101260.31;5005883;28;20034;-61
2022/04/10 06:26:17;;;;;;;5.82;2.00;;;;;;;4.83;nan;101266.22;5006368;28;20025;-61
2022/04/10 06:28:43;;;;;;;8.00;2.67;;;;;;;4.87;nan;101269.34;5000470;28;20472;-61
2022/04/10 06:31:08;;;;;;;12.05;2.85;;;;;;;4.87;nan;101271.19;5004210;28;20130;-61
2022/04/10 06:33:34;;;;;;;9.18;2.25;;;;;;;4.88;nan;101273.63;5006689;28;20126;-60
2022/04/10 06:36:00;;;;;;;6.85;2.58;;;;;;;4.89;nan;101277.91;5007872;28;20042;-61
2022/04/10 06:38:25;;;;;;;7.95;2.47;;;;;;;4.84;nan;101278.50;5007434;28;20073;-61
2022/04/10 06:40:51;;;;;;;6.72;2.63;;;;;;;4.84;nan;101277.66;5008457;28;20083;-63
2022/04/10 06:43:17;;;;;;;7.70;2.60;;;;;;;4.91;nan;101273.22;5005434;28;20603;-61
2022/04/10 06:45:43;;;;;;;8.27;2.10;;;;;;;4.92;nan;101288.16;5005818;28;20037;-61
2022/04/10 06:48:09;;;;;;;11.88;2.92;;;;;;;4.95;nan;101286.91;5003703;28;20026;-60
2022/04/10 06:50:34;;;;;;;7.78;1.95;;;;;;;4.97;nan;101291.00;5003503;28;20034;-62
2022/04/10 06:53:00;;;;;;;13.52;2.60;;;;;;;5.00;nan;101298.59;5009341;28;20153;-62
2022/04/10 06:55:25;;;;;;;4.68;1.77;;;;;;;5.00;nan;101292.44;5006120;28;20037;-61
2022/04/10 06:57:51;;;;;;;5.47;2.10;;;;;;;5.05;nan;101290.88;5005756;28;20542;-60
2022/04/10 07:00:17;;;;;;;7.22;1.85;;;;;;;5.10;nan;101298.22;5002843;28;20026;-59
2022/04/10 07:02:42;;;;;;;6.18;1.92;;;;;;;5.16;nan;101298.25;5006417;28;20491;-60
2022/04/10 07:05:08;;;;;;;8.52;2.80;;;;;;;5.19;nan;101290.88;5005513;28;20041;-60
2022/04/10 07:07:34;;;;;;;5.55;2.10;;;;;;;5.22;nan;101301.97;5007189;28;20041;-62
2022/04/10 07:09:59;;;;;;;11.80;2.35;;;;;;;5.24;nan;101305.22;5005164;28;20026;-61
2022/04/10 07:12:25;;;;;;;7.15;2.00;;;;;;;5.26;nan;101305.03;5005432;28;20025;-62
2022/04/10 07:14:51;;;;;;;12.45;1.92;;;;;;;5.29;nan;101313.41;5000799;28;20384;-61
2022/04/10 07:17:17;;;;;;;7.55;2.05;;;;;;;5.35;nan;101319.75;5007411;28;20104;-63
2022/04/10 07:19:45;;;;;;;3.58;1.98;;;;;;;5.43;nan;101314.28;5004812;28;20042;-61
2022/04/10 07:24:55;;;;;;;5.80;2.03;;;;;;;5.50;nan;101324.91;5004318;28;20359;-60
2022/04/10 07:27:21;;;;;;;4.68;2.28;;;;;;;5.51;nan;101321.25;5006335;28;20018;-61
2022/04/10 07:29:46;;;;;;;11.60;2.20;;;;;;;5.55;nan;101333.94;5001282;28;20625;-60
2022/04/10 07:32:12;;;;;;;6.13;1.90;;;;;;;5.58;nan;101338.03;5004421;28;20025;-60
2022/04/10 07:34:38;;;;;;;7.15;1.98;;;;;;;5.60;nan;101339.47;5006752;28;20144;-60
2022/04/10 07:37:03;;;;;;;8.35;2.25;;;;;;;5.63;nan;101333.75;5000263;28;20049;-62
2022/04/10 07:39:29;;;;;;;10.13;2.47;;;;;;;5.74;nan;101337.66;5003860;28;20068;-61
2022/04/10 07:41:54;;;;;;;6.80;2.25;;;;;;;5.87;nan;101332.34;5007232;28;20064;-61
2022/04/10 07:44:20;;;;;;;10.75;2.15;;;;;;;5.93;nan;101336.09;5006924;28;20077;-62
2022/04/10 07:49:29;;;;;;;4.53;1.90;;;;;;;5.99;nan;101351.25;5004797;28;20045;-62
2022/04/10 07:51:55;;;;;;;7.60;2.22;;;;;;;6.06;nan;101341.41;5005199;28;20051;-60
2022/04/10 07:54:20;;;;;;;6.70;2.05;;;;;;;6.07;nan;101351.03;4999685;28;20044;-62
2022/04/10 07:56:46;;;;;;;6.70;2.13;;;;;;;5.97;nan;101347.97;4998136;28;20496;-61
2022/04/10 07:59:12;;;;;;;7.90;1.88;;;;;;;5.93;nan;101358.19;5005835;28;20037;-61
2022/04/10 08:01:38;;;;;;;10.75;2.17;;;;;;;5.89;nan;101358.75;4999792;28;20435;-60
2022/04/10 08:04:04;;;;;;;4.22;1.38;;;;;;;5.87;nan;101358.13;5005142;28;20709;-61
2022/04/10 08:06:29;;;;;;;7.53;1.90;;;;;;;5.91;nan;101360.22;4996534;28;20415;-61
2022/04/10 08:08:55;;;;;;;8.48;2.05;;;;;;;5.99;nan;101362.69;5003121;28;20030;-60
2022/04/10 08:11:20;;;;;;;7.43;2.33;;;;;;;6.06;nan;101371.50;5003876;28;20037;-62
2022/04/10 08:13:46;;;;;;;9.43;2.28;;;;;;;6.13;nan;101374.19;5005646;28;20049;-60
2022/04/10 08:16:14;;;;;;;9.38;1.98;;;;;;;6.17;nan;101380.72;5004498;28;20564;-62
2022/04/10 08:18:40;;;;;;;6.38;1.88;;;;;;;6.23;nan;101368.44;5003178;28;20037;-62
2022/04/10 08:21:06;;;;;;;5.45;1.92;;;;;;;6.31;nan;101379.72;4998074;28;20041;-61
2022/04/10 08:23:32;;;;;;;5.65;1.95;;;;;;;6.40;nan;101380.31;5001779;28;20136;-61
2022/04/10 08:25:57;;;;;;;9.30;2.15;;;;;;;6.50;nan;101377.25;5000534;28;20132;-61
2022/04/10 08:28:23;;;;;;;6.05;1.55;;;;;;;6.52;nan;101376.03;5002132;28;20546;-62
2022/04/10 08:30:49;;;;;;;7.45;1.90;;;;;;;6.57;nan;101386.06;4995968;28;20018;-61
2022/04/10 08:33:14;;;;;;;8.13;2.33;;;;;;;6.58;nan;101379.69;4999772;28;20483;-62
2022/04/10 08:35:40;;;;;;;6.78;1.92;;;;;;;6.62;nan;101380.91;5000478;28;20088;-57
2022/04/10 08:38:06;;;;;;;4.97;1.73;;;;;;;6.73;nan;101377.63;5002338;28;20081;-60
2022/04/10 08:40:32;;;;;;;7.70;2.22;;;;;;;6.78;nan;101385.81;4997634;28;20084;-60
2022/04/10 08:43:00;;;;;;;6.10;1.85;;;;;;;6.73;nan;101390.13;5001905;28;20444;-60
2022/04/10 08:45:26;;;;;;;6.13;1.85;;;;;;;6.72;nan;101394.66;5004335;28;20122;-60
2022/04/10 08:47:54;;;;;;;11.13;1.98;;;;;;;6.79;nan;101395.44;5000340;28;20491;-59
2022/04/10 08:50:19;;;;;;;7.20;2.25;;;;;;;6.87;nan;101389.91;5002936;28;20068;-59
2022/04/10 08:52:46;;;;;;;6.88;1.55;;;;;;;6.92;nan;101395.44;5005915;28;20606;-59
2022/04/10 08:55:11;;;;;;;5.63;1.80;;;;;;;6.95;nan;101400.34;5000493;28;20116;-59
2022/04/10 08:57:37;;;;;;;7.38;1.65;;;;;;;6.95;nan;101400.34;5007264;28;20033;-59
2022/04/10 09:00:04;;;;;;;3.97;1.48;;;;;;;7.00;nan;101404.22;5001485;28;20083;-59
2022/04/10 09:02:29;;;;;;;9.50;2.42;;;;;;;7.01;nan;101403.22;5008169;28;20091;-59
2022/04/10 09:04:56;;;;;;;7.35;1.98;;;;;;;7.07;nan;101408.53;5004179;28;20499;-59
2022/04/10 09:07:22;;;;;;;8.02;1.90;;;;;;;7.13;nan;101401.53;5007755;28;20026;-59
2022/04/10 09:09:56;;;;;;;4.15;1.60;;;;;;;7.15;nan;101400.28;5005686;28;20105;-59
2022/04/10 09:12:22;;;;;;;6.20;1.88;;;;;;;7.21;nan;101394.13;5003173;28;20044;-59
2022/04/10 09:14:49;;;;;;;4.28;1.38;;;;;;;7.25;nan;101411.34;5003091;28;20026;-59
2022/04/10 09:17:29;;;;;;;5.93;1.55;;;;;;;7.22;nan;101403.78;5003632;28;20030;-59
2022/04/10 09:19:56;;;;;;;8.07;1.73;;;;;;;7.25;nan;101408.69;5000757;28;20057;-60
2022/04/10 09:22:35;;;;;;;6.15;1.60;;;;;;;7.20;nan;101405.81;5003930;28;20037;-59
2022/04/10 09:25:16;;;;;;;8.73;1.80;;;;;;;7.16;nan;101403.75;5000338;28;20028;-58
2022/04/10 09:27:44;;;;;;;6.35;1.55;;;;;;;7.24;nan;101400.88;4999630;28;20038;-59
2022/04/10 09:30:20;;;;;;;10.13;1.55;;;;;;;7.27;nan;101408.47;5004546;28;20039;-61
2022/04/10 09:32:47;;;;;;;8.93;1.42;;;;;;;7.28;nan;101404.75;4999575;28;20045;-61
2022/04/10 09:35:15;;;;;;;4.80;1.50;;;;;;;7.33;nan;101406.78;5006104;28;20031;-60
2022/04/10 09:37:48;;;;;;;10.07;1.65;;;;;;;7.40;nan;101403.09;5001047;28;20048;-60
2022/04/10 09:40:39;;;;;;;7.72;1.63;;;;;;;7.43;nan;101407.19;5001627;28;20133;-62
2022/04/10 09:43:08;;;;;;;5.72;1.42;;;;;;;7.57;nan;101409.59;4995703;28;20038;-61
2022/04/10 09:45:41;;;;;;;6.40;1.50;;;;;;;7.70;nan;101397.19;4999904;28;20344;-59
2022/04/10 09:48:20;;;;;;;6.22;1.70;;;;;;;7.65;nan;101400.50;5004416;28;20026;-61
2022/04/10 09:50:47;;;;;;;7.20;1.70;;;;;;;7.73;nan;101410.13;4999823;28;20467;-61
2022/04/10 09:53:12;;;;;;;6.85;1.75;;;;;;;7.73;nan;101407.47;5000834;28;20038;-61
2022/04/10 09:55:40;;;;;;;10.30;2.15;;;;;;;7.69;nan;101404.38;4999278;28;20411;-61
2022/04/10 09:58:08;;;;;;;9.95;2.50;;;;;;;7.63;nan;101410.56;5002444;28;20026;-59
2022/04/10 10:01:00;;;;;;;9.35;2.10;;;;;;;7.55;nan;101416.16;4999535;28;20046;-59
2022/04/10 10:03:29;;;;;;;7.47;2.00;;;;;;;7.57;nan;101422.91;4998648;28;20037;-65
2022/04/10 10:05:57;;;;;;;3.53;1.45;;;;;;;7.53;nan;101420.88;4999904;28;20602;-59
2022/04/10 10:08:24;;;;;;;7.22;2.10;;;;;;;7.53;nan;101421.69;5005668;28;20069;-60
2022/04/10 10:10:49;;;;;;;7.78;1.70;;;;;;;7.51;nan;101417.59;5001756;28;20032;-60
2022/04/10 10:13:15;;;;;;;10.10;2.22;;;;;;;7.56;nan;101407.94;5004391;28;20029;-60
2022/04/10 10:15:42;;;;;;;5.05;1.90;;;;;;;7.72;nan;101412.00;5004375;28;20508;-60
2022/04/10 10:18:10;;;;;;;8.98;1.77;;;;;;;7.89;nan;101417.63;5003020;28;20029;-59
2022/04/10 10:20:38;;;;;;;5.25;1.70;;;;;;;8.05;nan;101408.28;5002574;28;20055;-61
2022/04/10 10:23:09;;;;;;;4.90;1.75;;;;;;;8.04;nan;101415.47;5003396;28;20041;-60
2022/04/10 10:26:13;;;;;;;5.95;1.70;;;;;;;7.92;nan;101414.53;5004690;28;20029;-59
2022/04/10 10:29:13;;;;;;;5.97;1.63;;;;;;;7.67;nan;101433.13;5006181;28;20088;-60
2022/04/10 10:32:11;;;;;;;5.25;1.90;;;;;;;7.41;nan;101438.56;5004573;28;20034;-60
2022/04/10 10:34:37;;;;;;;5.30;1.85;;;;;;;7.35;nan;101429.53;5002733;28;20030;-61
2022/04/10 10:37:04;;;;;;;5.43;2.00;;;;;;;7.34;nan;101422.56;5004911;28;20037;-61
2022/04/10 10:39:31;;;;;;;3.70;1.45;;;;;;;7.42;nan;101422.34;5003906;28;20742;-61
2022/04/10 10:42:10;;;;;;;4.80;1.58;;;;;;;7.37;nan;101424.03;5005361;28;20087;-60
2022/04/10 10:44:41;;;;;;;6.15;1.83;;;;;;;7.45;nan;101424.59;5003551;28;20049;-59
2022/04/10 10:47:23;;;;;;;6.60;1.63;;;;;;;7.43;nan;101424.00;5004424;28;20979;-61
2022/04/10 10:49:51;;;;;;;6.65;1.48;;;;;;;7.43;nan;101424.00;5004384;28;20087;-62
2022/04/10 10:52:17;;;;;;;3.83;1.45;;;;;;;7.43;nan;101416.00;5003820;28;20033;-61
2022/04/10 10:54:46;;;;;;;8.75;1.70;;;;;;;7.46;nan;101414.75;5000565;28;20032;-61
2022/04/10 10:57:30;;;;;;;6.63;1.60;;;;;;;7.56;nan;101413.28;5005691;28;20053;-61
2022/04/10 11:00:12;;;;;;;4.97;1.20;;;;;;;7.66;nan;101412.00;5000789;28;20033;-61
2022/04/10 11:02:39;;;;;;;4.43;1.85;;;;;;;7.77;nan;101422.81;5001529;28;20057;-59
2022/04/10 11:05:27;;;;;;;8.95;1.88;;;;;;;7.70;nan;101445.22;5003841;28;20030;-61
2022/04/10 11:07:57;;;;;;;6.28;1.80;;;;;;;7.68;nan;101436.59;5004950;28;20384;-60
2022/04/10 11:10:24;;;;;;;4.97;1.58;;;;;;;7.61;nan;101435.81;5005306;28;20123;-59
2022/04/10 11:12:52;;;;;;;6.75;1.52;;;;;;;7.29;nan;101446.38;5003446;28;20038;-60
2022/04/10 11:15:23;;;;;;;2.58;1.40;;;;;;;7.01;nan;101451.19;5001414;28;20196;-60
2022/04/10 11:17:50;;;;;;;7.05;2.00;;;;;;;7.03;nan;101459.78;5006770;28;20054;-60
2022/04/10 11:20:20;;;;;;;9.98;2.78;;;;;;;7.16;nan;101449.06;5003878;28;20029;-60
2022/04/10 11:22:52;;;;;;;4.32;1.45;;;;;;;7.34;nan;101441.22;5001992;28;20056;-61
2022/04/10 11:25:19;;;;;;;6.82;1.85;;;;;;;7.52;nan;101451.22;5004814;28;20145;-60
2022/04/10 11:27:54;;;;;;;5.57;1.88;;;;;;;7.66;nan;101444.00;5002822;28;20495;-60
2022/04/10 11:30:24;;;;;;;;;;;;;;;7.73;nan;101444.81;5004180;28;20026;-60
2022/04/10 11:32:54;;;;;;;5.13;1.48;;;;;;;7.85;nan;101443.91;4999654;28;19928;-60
2022/04/10 11:35:32;;;;;;;4.65;1.45;;;;;;;8.00;nan;101430.28;5003643;28;20523;-61
2022/04/10 11:38:00;;;;;;;4.05;1.73;;;;;;;8.14;nan;101431.03;5003373;28;20040;-60
2022/04/10 11:40:28;;;;;;;7.57;2.47;;;;;;;8.27;nan;101432.81;5004436;28;20033;-60
2022/04/10 11:42:58;;;;;;;5.00;1.50;;;;;;;8.43;nan;101429.63;5001269;28;20116;-61
2022/04/10 11:45:26;;;;;;;6.43;1.58;;;;;;;8.76;nan;101424.81;5003031;28;20029;-61
2022/04/10 11:47:52;;;;;;;10.68;2.33;;;;;;;9.10;nan;101430.66;5003938;28;20080;-61
2022/04/10 11:50:19;;;;;;;9.88;2.17;;;;;;;9.42;nan;101433.22;5000875;28;20117;-61
2022/04/10 11:52:56;;;;;;;4.43;1.38;;;;;;;9.63;nan;101435.41;5000948;28;20017;-61
2022/04/10 11:55:27;;;;;;;6.30;1.77;;;;;;;9.72;nan;101427.91;5001576;28;20105;-61